Data for 01/31/2018

Time Sea-Level Adjusted Pressure Absolute Pressure Temperature Relative Humidity Dew Point   
(mb) (inHg) (mb) (inHg) (C) (F) (%) (C) (F)
00:05 1016 30 845 24.95 -3 26.7 46 -13.2 8.3
00:10 1016 30 845 24.95 -3.1 26.5 45 -13.4 8
00:15 1015 29.97 845 24.95 -3 26.5 46 -13.1 8.4
00:20 1015 29.97 845 24.95 -3.1 26.5 46 -13.1 8.4
00:25 1015 29.97 844 24.92 -3.1 26.5 45 -13.4 7.9
00:30 1015 29.97 844 24.92 -3.2 26.3 46 -13.2 8.3
00:35 1015 29.97 844 24.92 -3.5 25.8 48 -13.1 8.4
00:40 1015 29.97 844 24.92 -3.7 25.4 49 -12.9 8.8
00:45 1015 29.97 844 24.92 -3.9 24.9 51 -12.6 9.4
00:50 1015 29.97 845 24.95 -4.1 24.6 53 -12.4 9.7
00:55 1015 29.97 845 24.95 -4.1 24.7 51 -12.7 9.1
01:00 1015 29.97 844 24.92 -3.9 25 50 -12.8 8.9
01:05 1015 29.97 844 24.92 -3.8 25.1 51 -12.6 9.4
01:10 1015 29.97 844 24.92 -3.9 24.9 52 -12.4 9.7
01:15 1015 29.97 844 24.92 -3.9 25 51 -12.7 9.1
01:20 1015 29.97 844 24.92 -3.9 25 52 -12.5 9.6
01:25 1015 29.97 844 24.92 -4.1 24.6 52 -12.6 9.4
01:30 1015 29.97 844 24.92 -4.4 24.1 56 -12 10.4
01:35 1015 29.97 844 24.92 -4.7 23.5 55 -12.4 9.7
01:40 1015 29.97 844 24.92 -4.4 24.1 54 -12.3 9.8
01:45 1015 29.97 844 24.92 -4.3 24.3 52 -12.7 9.2
01:50 1014 29.94 844 24.92 -3.9 25 50 -12.8 9
01:55 1014 29.94 844 24.92 -3.5 25.6 49 -12.9 8.8
02:00 1015 29.97 844 24.92 -3.4 25.9 49 -12.7 9.1
02:05 1015 29.97 844 24.92 -3.3 26 48 -12.8 9
02:10 1015 29.97 844 24.92 -3.3 26.1 49 -12.5 9.6
02:15 1015 29.97 844 24.92 -3.7 25.3 54 -11.7 10.9
02:20 1015 29.97 844 24.92 -5 23.1 59 -11.9 10.6
02:25 1015 29.97 844 24.92 -5.3 22.4 59 -12.2 10
02:30 1015 29.97 844 24.92 -5 23 57 -12.3 9.9
02:35 1015 29.97 844 24.92 -4.5 23.9 55 -12.3 9.9
02:40 1015 29.97 844 24.92 -4.1 24.6 53 -12.4 9.8
02:45 1015 29.97 844 24.92 -4.1 24.7 54 -12.1 10.3
02:50 1015 29.97 844 24.92 -3.8 25.2 53 -12 10.4
02:55 1015 29.97 844 24.92 -3.7 25.4 51 -12.4 9.6
03:00 1015 29.97 844 24.92 -3.6 25.5 52 -12.1 10.3
03:05 1015 29.97 844 24.92 -3.6 25.6 52 -12.2 10.1
03:10 1015 29.97 844 24.92 -3.6 25.5 51 -12.3 9.9
03:15 1015 29.97 844 24.92 -3.7 25.4 51 -12.3 9.9
03:20 1015 29.97 844 24.92 -3.8 25.2 51 -12.4 9.6
03:25 1015 29.97 844 24.92 -3.7 25.3 52 -12.2 10
03:30 1015 29.97 844 24.92 -3.8 25.1 53 -12 10.4
03:35 1015 29.97 844 24.92 -3.8 25.2 53 -12.1 10.3
03:40 1015 29.97 844 24.92 -3.8 25.1 54 -11.8 10.7
03:45 1015 29.97 844 24.92 -3.9 24.9 55 -11.7 10.9
03:50 1015 29.97 844 24.92 -4 24.8 56 -11.6 11.1
03:55 1015 29.97 844 24.92 -4 24.8 55 -11.7 11
04:00 1015 29.97 844 24.92 -4.1 24.7 56 -11.7 11
04:05 1015 29.97 845 24.95 -4.1 24.7 55 -11.8 10.8
04:10 1015 29.97 845 24.95 -4.1 24.6 56 -11.8 10.8
04:15 1015 29.97 844 24.92 -4.2 24.5 55 -11.9 10.6
04:20 1015 29.97 844 24.92 -4.1 24.6 54 -12.1 10.1
04:25 1015 29.97 844 24.92 -4.1 24.6 54 -12 10.4
04:30 1015 29.97 844 24.92 -4.3 24.2 55 -12 10.4
04:35 1015 29.97 844 24.92 -4.6 23.7 56 -12.1 10.2
04:40 1015 29.97 844 24.92 -4.6 23.7 56 -12.1 10.2
04:45 1015 29.97 845 24.95 -4.7 23.5 56 -12.2 10
04:50 1015 29.97 845 24.95 -4.7 23.6 56 -12.2 10
04:55 1015 29.97 845 24.95 -4.6 23.7 55 -12.4 9.8
05:00 1015 29.97 845 24.95 -4.7 23.6 55 -12.3 9.8
05:05 1015 29.97 845 24.95 -4.7 23.6 55 -12.4 9.6
05:10 1015 29.97 845 24.95 -4.8 23.4 55 -12.5 9.5
05:15 1015 29.97 845 24.95 -4.9 23.1 55 -12.7 9.1
05:20 1015 29.97 845 24.95 -4.9 23.3 54 -12.8 9
05:25 1015 29.97 845 24.95 -4.7 23.5 53 -12.9 8.8
05:30 1016 30 845 24.95 -4.6 23.7 53 -12.9 8.7
05:35 1016 30 845 24.95 -4.5 23.9 53 -12.8 9
05:40 1016 30 845 24.95 -4.5 24 52 -12.8 8.9
05:45 1016 30 845 24.95 -4.4 24.1 52 -12.9 8.9
05:50 1016 30 845 24.95 -4.3 24.3 51 -13 8.5
05:55 1016 30 845 24.95 -4.2 24.4 51 -12.9 8.8
06:00 1016 30 845 24.95 -4.2 24.5 51 -13 8.7
06:05 1015 29.97 845 24.95 -4.1 24.6 50 -13.1 8.4
06:10 1015 29.97 845 24.95 -4.1 24.6 50 -13.2 8.3
06:15 1015 29.97 845 24.95 -4.2 24.5 49 -13.3 8
06:20 1015 29.97 845 24.95 -4 24.8 47 -13.8 7.2
06:25 1015 29.97 845 24.95 -3.9 25 47 -13.7 7.4
06:30 1015 29.97 845 24.95 -3.9 24.9 47 -13.6 7.6
06:35 1016 30 845 24.95 -4 24.9 47 -13.7 7.3
06:40 1016 30 845 24.95 -4 24.9 47 -13.7 7.3
06:45 1016 30 845 24.95 -3.9 24.9 45 -14.2 6.5
06:50 1016 30 845 24.95 -3.8 25.1 45 -14 6.8
06:55 1016 30 845 24.95 -3.6 25.4 46 -13.7 7.3
07:00 1016 30 845 24.95 -3.6 25.5 47 -13.4 7.9
07:05 1016 30 845 24.95 -3.8 25.2 48 -13.2 8.3
07:10 1016 30 845 24.95 -3.9 25.1 48 -13.4 7.9
07:15 1016 30 845 24.95 -3.9 25 49 -13.1 8.4
07:20 1016 30 845 24.95 -3.9 24.9 49 -13.2 8.3
07:25 1016 30 845 24.95 -4 24.7 49 -13.2 8.2
07:30 1016 30 845 24.95 -4.1 24.6 50 -13.1 8.4
07:35 1016 30 845 24.95 -4.2 24.4 50 -13.3 8.1
07:40 1016 30 845 24.95 -4.2 24.4 50 -13.3 8.1
07:45 1016 30 845 24.95 -4.4 24.1 50 -13.4 7.9
07:50 1016 30 845 24.95 -4.6 23.8 51 -13.2 8.3
07:55 1016 30 845 24.95 -4.6 23.7 52 -13.1 8.4
08:00 1016 30 845 24.95 -4.7 23.5 52 -13.2 8.3
08:05 1016 30 845 24.95 -4.7 23.5 52 -13.1 8.4
08:10 1016 30 846 24.98 -4.7 23.5 52 -13 8.5
08:15 1016 30 846 24.98 -4.9 23.3 52 -13.2 8.3
08:20 1017 30.03 846 24.98 -4.8 23.4 53 -13 8.6
08:25 1017 30.03 846 24.98 -4.7 23.6 51 -13.4 7.9
08:30 1017 30.03 846 24.98 -4.4 24 49 -13.6 7.5
08:35 1017 30.03 846 24.98 -4.2 24.4 49 -13.4 7.9
08:40 1017 30.03 846 24.98 -4.1 24.5 49 -13.4 7.9
08:45 1017 30.03 846 24.98 -4.1 24.6 50 -13.2 8.3
08:50 1017 30.03 846 24.98 -4.1 24.7 50 -13.1 8.5
08:55 1017 30.03 846 24.98 -3.8 25.1 50 -12.8 9
09:00 1017 30.03 846 24.98 -3.9 25 49 -13.1 8.4
09:05 1017 30.03 846 24.98 -3.7 25.4 47 -13.3 8
09:10 1017 30.03 846 24.98 -3.5 25.7 48 -13 8.6
09:15 1017 30.03 846 24.98 -3.4 25.9 46 -13.3 8
09:20 1017 30.03 846 24.98 -3.4 25.8 49 -12.7 9.2
09:25 1017 30.03 846 24.98 -3.4 25.8 47 -13.2 8.3
09:30 1017 30.03 846 24.98 -3.5 25.7 49 -12.8 9
09:35 1017 30.03 846 24.98 -3.6 25.6 49 -12.9 8.8
09:40 1017 30.03 846 24.98 -3.6 25.6 49 -12.9 8.8
09:45 1017 30.03 846 24.98 -3.6 25.6 49 -12.7 9.1
09:50 1017 30.03 846 24.98 -3.6 25.4 51 -12.4 9.6
09:55 1017 30.03 846 24.98 -3.6 25.5 49 -12.8 8.9
10:00 1017 30.03 846 24.98 -3.4 25.8 50 -12.5 9.5
10:05 1017 30.03 846 24.98 -3.3 26.1 49 -12.4 9.6
10:10 1017 30.03 846 24.98 -3.1 26.4 49 -12.3 9.8
10:15 1017 30.03 846 24.98 -2.8 26.9 48 -12.3 9.8
10:20 1017 30.03 846 24.98 -2.5 27.4 48 -12.2 10
10:25 1017 30.03 846 24.98 -2.4 27.7 47 -12.3 9.8
10:30 1017 30.03 846 24.98 -2.2 28 46 -12.3 9.8
10:35 1017 30.03 846 24.98 -2 28.4 45 -12.3 9.8
10:40 1017 30.03 847 25.01 -1.8 28.8 45 -12.3 9.8
10:45 1017 30.03 847 25.01 -1.6 29.1 45 -12.1 10.2
10:50 1017 30.03 847 25.01 -1.6 29.1 45 -12 10.5
10:55 1017 30.03 847 25.01 -1.5 29.4 44 -12.2 10
11:00 1017 30.03 847 25.01 -1.4 29.5 44 -12.2 10.1
11:05 1018 30.06 847 25.01 -1.3 29.7 44 -12.1 10.2
11:10 1018 30.06 847 25.01 -1.3 29.6 45 -11.9 10.5
11:15 1018 30.06 847 25.01 -1.4 29.5 44 -12 10.3
11:20 1018 30.06 847 25.01 -1.4 29.5 45 -11.8 10.7
11:25 1018 30.06 847 25.01 -1.4 29.5 44 -12.2 10
11:30 1018 30.06 847 25.01 -1.4 29.5 45 -11.8 10.8
11:35 1018 30.06 847 25.01 -1.4 29.5 45 -11.9 10.6
11:40 1018 30.06 847 25.01 -1.4 29.5 45 -11.8 10.7
11:45 1018 30.06 847 25.01 -1.3 29.7 45 -11.8 10.7
11:50 1018 30.06 847 25.01 -1.2 29.8 44 -12 10.3
11:55 1018 30.06 847 25.01 -1.3 29.7 43 -12.3 9.9
12:00 1018 30.06 847 25.01 -1.4 29.5 44 -12.2 10
12:05 1018 30.06 847 25.01 -1.3 29.7 43 -12.5 9.6
12:10 1018 30.06 847 25.01 -1.2 29.9 43 -12.4 9.7
12:15 1018 30.06 847 25.01 -1.1 30.1 42 -12.3 9.8
12:20 1018 30.06 847 25.01 -0.8 30.5 41 -12.5 9.6
12:25 1018 30.06 847 25.01 -0.9 30.3 42 -12.3 9.9
12:30 1018 30.06 847 25.01 -1 30.2 42 -12.4 9.8
12:35 1018 30.06 847 25.01 -0.6 30.9 41 -12.2 10
12:40 1018 30.06 847 25.01 -0.4 31.3 40 -12.4 9.7
12:45 1018 30.06 847 25.01 -0.2 31.7 39 -12.6 9.4
12:50 1018 30.06 847 25.01 -0.3 31.4 39 -12.8 8.9
12:55 1018 30.06 847 25.01 -0.5 31.1 41 -12.2 10
13:00 1018 30.06 847 25.01 -0.5 31.1 41 -12.1 10.1
13:05 1018 30.06 847 25.01 -0.6 30.9 42 -12.1 10.2
13:10 1018 30.06 847 25.01 -0.9 30.4 43 -12 10.5
13:15 1018 30.06 847 25.01 -1.1 30 42 -12.4 9.7
13:20 1018 30.06 847 25.01 -1.2 29.9 44 -12 10.3
13:25 1017 30.03 847 25.01 -1.2 29.9 42 -12.6 9.3
13:30 1017 30.03 847 25.01 -0.5 31.2 40 -12.5 9.4
13:35 1017 30.03 847 25.01 -0.1 31.9 40 -12.2 10.1
13:40 1017 30.03 847 25.01 0.3 32.5 38 -12.3 9.8
13:45 1017 30.03 847 25.01 0.4 32.7 37 -12.8 8.9
13:50 1017 30.03 847 25.01 0.6 33.1 36 -13 8.7
13:55 1017 30.03 847 25.01 0.6 33.1 36 -12.9 8.7
14:00 1017 30.03 847 25.01 0.4 32.7 37 -12.6 9.3
14:05 1017 30.03 847 25.01 0.6 33 37 -12.4 9.6
14:10 1017 30.03 847 25.01 1.1 34.1 36 -12.4 9.6
14:15 1017 30.03 847 25.01 1.5 34.6 35 -12.5 9.5
14:20 1017 30.03 847 25.01 1.4 34.5 35 -12.6 9.2
14:25 1017 30.03 847 25.01 0.8 33.5 37 -12.2 10.1
14:30 1017 30.03 847 25.01 0.4 32.8 38 -12.4 9.7
14:35 1017 30.03 847 25.01 0.1 32.1 38 -12.6 9.2
14:40 1017 30.03 847 25.01 -0.1 31.8 38 -12.9 8.8
14:45 1017 30.03 847 25.01 -0.3 31.5 38 -12.8 8.9
14:50 1017 30.03 847 25.01 -0.3 31.5 41 -12.1 10.3
14:55 1018 30.06 847 25.01 -0.3 31.5 40 -12.2 10
15:00 1018 30.06 847 25.01 -0.5 31.2 39 -12.7 9.2
15:05 1018 30.06 847 25.01 -0.4 31.2 40 -12.4 9.7
15:10 1017 30.03 847 25.01 -0.4 31.3 39 -12.9 8.8
15:15 1017 30.03 847 25.01 -0.5 31.2 40 -12.6 9.4
15:20 1018 30.06 847 25.01 -0.4 31.2 41 -12 10.3
15:25 1018 30.06 847 25.01 -0.4 31.3 41 -12.2 10
15:30 1018 30.06 847 25.01 -0.3 31.5 40 -12.4 9.7
15:35 1018 30.06 847 25.01 0.3 32.5 37 -12.7 9.2
15:40 1018 30.06 847 25.01 0.4 32.6 38 -12.4 9.7
15:45 1018 30.06 847 25.01 0 32 41 -11.8 10.8
15:50 1018 30.06 847 25.01 -0.2 31.7 40 -12.2 10.1
15:55 1018 30.06 847 25.01 -0.4 31.3 41 -12.2 10
16:00 1018 30.06 847 25.01 -0.6 31 40 -12.6 9.4
16:05 1018 30.06 847 25.01 -0.7 30.7 40 -12.8 8.9
16:10 1018 30.06 847 25.01 -0.8 30.6 41 -12.4 9.6
16:15 1018 30.06 847 25.01 -0.8 30.6 41 -12.3 9.8
16:20 1018 30.06 847 25.01 -0.8 30.5 41 -12.4 9.8
16:25 1018 30.06 847 25.01 -0.9 30.4 43 -11.9 10.5
16:30 1018 30.06 847 25.01 -1 30.2 43 -12.2 10
16:35 1018 30.06 847 25.01 -1.1 30 44 -12 10.3
16:40 1018 30.06 847 25.01 -1.2 29.9 44 -11.9 10.6
16:45 1018 30.06 847 25.01 -1.4 29.5 46 -11.7 11
16:50 1018 30.06 847 25.01 -1.5 29.3 44 -12.1 10.2
16:55 1018 30.06 847 25.01 -1.6 29.2 45 -12.1 10.3
17:00 1018 30.06 847 25.01 -1.6 29.1 44 -12.3 9.9
17:05 1018 30.06 847 25.01 -1.7 29 44 -12.3 9.8
17:10 1018 30.06 847 25.01 -1.8 28.8 45 -12.3 9.8
17:15 1018 30.06 847 25.01 -1.7 28.9 45 -12.2 10
17:20 1018 30.06 847 25.01 -1.7 28.9 45 -12.2 10.1
17:25 1018 30.06 847 25.01 -1.8 28.8 46 -12 10.4
17:30 1018 30.06 847 25.01 -1.8 28.7 47 -11.8 10.7
17:35 1018 30.06 847 25.01 -1.9 28.6 47 -11.8 10.8
17:40 1018 30.06 847 25.01 -2 28.4 49 -11.5 11.3
17:45 1018 30.06 847 25.01 -2.2 28 48 -11.7 10.9
17:50 1018 30.06 847 25.01 -2.4 27.7 50 -11.6 11.2
17:55 1018 30.06 847 25.01 -2.6 27.4 51 -11.4 11.5
18:00 1018 30.06 848 25.04 -2.7 27.1 51 -11.5 11.3
18:05 1018 30.06 848 25.04 -3 26.6 53 -11.2 11.8
18:10 1018 30.06 848 25.04 -3.4 26 54 -11.4 11.5
18:15 1018 30.06 848 25.04 -3.6 25.5 55 -11.5 11.4
18:20 1018 30.06 848 25.04 -3.9 25 56 -11.5 11.4
18:25 1018 30.06 847 25.01 -3.9 25 55 -11.6 11
18:30 1018 30.06 848 25.04 -4 24.8 54 -12.1 10.3
18:35 1018 30.06 848 25.04 -4.1 24.6 55 -11.8 10.8
18:40 1018 30.06 848 25.04 -4.1 24.7 55 -11.9 10.7
18:45 1018 30.06 848 25.04 -4 24.8 55 -11.9 10.7
18:50 1018 30.06 848 25.04 -3.9 25 55 -11.7 10.9
18:55 1018 30.06 848 25.04 -4 24.8 56 -11.6 11.2
19:00 1018 30.06 848 25.04 -4.3 24.2 55 -12.1 10.2
19:05 1019 30.09 848 25.04 -4.5 23.9 56 -12 10.4
19:10 1019 30.09 848 25.04 -4.5 23.8 55 -12.2 10
19:15 1019 30.09 848 25.04 -4.7 23.6 55 -12.3 9.9
19:20 1019 30.09 848 25.04 -4.5 23.8 53 -12.7 9.2
19:25 1019 30.09 848 25.04 -4.4 24.1 53 -12.7 9.2
19:30 1019 30.09 848 25.04 -4.2 24.4 54 -12.3 9.9
19:35 1019 30.09 848 25.04 -4.1 24.6 53 -12.4 9.6
19:40 1019 30.09 848 25.04 -4.2 24.4 52 -12.7 9.2
19:45 1019 30.09 848 25.04 -4.3 24.2 52 -12.9 8.8
19:50 1019 30.09 848 25.04 -4.2 24.4 49 -13.3 8.1
19:55 1019 30.09 848 25.04 -4.3 24.3 51 -13.1 8.5
20:00 1019 30.09 848 25.04 -4.2 24.4 50 -13.1 8.5
20:05 1019 30.09 848 25.04 -4 24.8 50 -13 8.5
20:10 1019 30.09 848 25.04 -3.9 25 50 -12.9 8.9
20:15 1019 30.09 848 25.04 -3.7 25.3 50 -12.7 9.1
20:20 1019 30.09 848 25.04 -3.8 25.1 50 -12.9 8.8
20:25 1019 30.09 848 25.04 -4.1 24.5 49 -13.3 8
20:30 1019 30.09 848 25.04 -4.4 24.2 49 -13.5 7.8
20:35 1019 30.09 848 25.04 -4.3 24.2 52 -12.9 8.8
20:40 1019 30.09 848 25.04 -4.4 24.1 53 -12.6 9.3
20:45 1019 30.09 848 25.04 -4.6 23.7 55 -12.4 9.6
20:50 1019 30.09 848 25.04 -4.7 23.5 54 -12.7 9.2
20:55 1019 30.09 848 25.04 -4.8 23.4 54 -12.7 9.1
21:00 1019 30.09 848 25.04 -4.7 23.5 52 -13.2 8.3
21:05 1019 30.09 848 25.04 -4.7 23.5 52 -13.1 8.4
21:10 1019 30.09 848 25.04 -4.8 23.4 52 -13.1 8.4
21:15 1019 30.09 848 25.04 -4.8 23.3 53 -13.1 8.4
21:20 1019 30.09 848 25.04 -4.8 23.4 51 -13.3 8
21:25 1019 30.09 848 25.04 -4.8 23.4 51 -13.5 7.7
21:30 1019 30.09 848 25.04 -4.6 23.7 50 -13.6 7.6
21:35 1019 30.09 848 25.04 -4.6 23.7 54 -12.6 9.3
21:40 1019 30.09 848 25.04 -4.8 23.3 52 -13.1 8.3
21:45 1019 30.09 848 25.04 -4.8 23.4 55 -12.4 9.6
21:50 1019 30.09 848 25.04 -4.9 23.3 53 -13.1 8.4
21:55 1019 30.09 848 25.04 -4.8 23.4 52 -13.3 8.1
22:00 1019 30.09 848 25.04 -4.5 23.8 50 -13.4 8
22:05 1019 30.09 848 25.04 -4.5 24 50 -13.3 8.1
22:10 1019 30.09 848 25.04 -4.4 24 51 -13 8.5
22:15 1019 30.09 849 25.07 -4.5 23.9 51 -13.1 8.4
22:20 1019 30.09 849 25.07 -4.4 24 50 -13.4 7.9
22:25 1019 30.09 849 25.07 -4.4 24.2 50 -13.4 7.9
22:30 1019 30.09 848 25.04 -4.2 24.4 50 -13.1 8.4
22:35 1019 30.09 848 25.04 -4.2 24.5 50 -13.2 8.3
22:40 1019 30.09 849 25.07 -4.2 24.4 50 -13.2 8.3
22:45 1019 30.09 849 25.07 -4.2 24.4 49 -13.3 8
22:50 1019 30.09 849 25.07 -4.2 24.5 50 -13.1 8.4
22:55 1019 30.09 849 25.07 -4.1 24.6 51 -12.9 8.8
23:00 1019 30.09 849 25.07 -4.1 24.6 52 -12.6 9.4
23:05 1019 30.09 848 25.04 -4.2 24.5 49 -13.2 8.2
23:10 1019 30.09 849 25.07 -4.3 24.2 52 -12.8 8.9
23:15 1019 30.09 849 25.07 -4.3 24.3 50 -13.3 8
23:20 1019 30.09 849 25.07 -4.2 24.4 50 -13.2 8.3
23:25 1020 30.12 849 25.07 -4.2 24.4 49 -13.5 7.7
23:30 1020 30.12 849 25.07 -4.1 24.6 48 -13.7 7.4
23:35 1020 30.12 849 25.07 -4 24.7 48 -13.5 7.7
23:40 1020 30.12 849 25.07 -4.1 24.6 49 -13.3 8
23:45 1020 30.12 849 25.07 -4.2 24.5 51 -13 8.6
23:50 1020 30.12 849 25.07 -4.1 24.7 50 -13 8.5
23:55 1020 30.12 849 25.07 -4 24.8 52 -12.5 9.5
24:00 1020 30.12 849 25.07 -4 24.9 50 -13 8.6